Time;durP1;ratioP1;P1;durP2;ratioP2;P2;SDS_P1;SDS_P2;PMS_P1;PMS_P2;Temp;Humidity;BMP_temperature;BMP_pressure;BME280_temperature;BME280_humidity;BME280_pressure;Samples;Min_cycle;Max_cycle;Signal;HPM_P1;HPM_P2
2024/04/11 00:00:16;;;;;;;14.20;8.60;;;;;;;9.87;73.62;98585.48;104726;1260;97908;-76
2024/04/11 00:03:02;;;;;;;13.30;7.70;;;;;;;9.86;74.03;98592.15;104752;1258;104695;-76
2024/04/11 00:05:29;;;;;;;12.90;8.50;;;;;;;9.88;74.28;98592.73;104714;1269;97988;-76
2024/04/11 00:07:55;;;;;;;14.70;8.30;;;;;;;9.89;74.46;98593.95;104699;1257;97923;-76
2024/04/11 00:10:21;;;;;;;12.30;8.70;;;;;;;9.89;74.67;98595.61;104741;1259;97994;-76
2024/04/11 00:12:48;;;;;;;14.80;8.30;;;;;;;9.89;74.65;98598.85;104838;1277;103421;-76
2024/04/11 00:15:14;;;;;;;13.50;8.60;;;;;;;9.90;74.78;98598.81;104724;1259;97901;-76
2024/04/11 00:17:41;;;;;;;12.90;8.60;;;;;;;9.88;74.83;98595.05;104648;1259;97944;-77
2024/04/11 00:20:07;;;;;;;13.20;9.70;;;;;;;9.87;74.87;98593.52;104735;1254;99208;-77
2024/04/11 00:22:34;;;;;;;17.00;9.30;;;;;;;9.85;74.81;98587.44;104733;1258;102558;-77
2024/04/11 00:25:01;;;;;;;14.00;8.90;;;;;;;9.88;74.90;98588.73;104660;1258;97917;-76
2024/04/11 00:27:28;;;;;;;13.30;8.90;;;;;;;9.86;75.06;98585.54;104728;1268;98451;-77
2024/04/11 00:29:54;;;;;;;12.30;8.90;;;;;;;9.83;75.10;98591.32;104723;1259;97931;-77
2024/04/11 00:32:23;;;;;;;13.70;8.60;;;;;;;9.82;75.29;98596.11;104790;1262;97895;-85
2024/04/11 00:34:49;;;;;;;17.20;9.50;;;;;;;9.81;75.20;98599.41;104736;1268;101321;-85
2024/04/11 00:37:15;;;;;;;12.00;8.60;;;;;;;9.81;75.05;98600.86;104725;1259;97835;-85
2024/04/11 00:39:42;;;;;;;13.50;8.80;;;;;;;9.81;75.29;98598.88;104721;1256;99247;-85
2024/04/11 00:42:08;;;;;;;15.10;8.40;;;;;;;9.83;75.29;98601.02;104788;1270;97955;-86
2024/04/11 00:44:37;;;;;;;13.20;8.80;;;;;;;9.81;75.49;98597.96;104764;1268;101778;-85
2024/04/11 00:47:09;;;;;;;14.60;9.00;;;;;;;9.78;75.58;98599.58;104762;1269;99335;-85
2024/04/11 00:49:40;;;;;;;15.40;9.80;;;;;;;9.79;75.68;98598.83;104734;1259;98015;-85
2024/04/11 00:52:10;;;;;;;15.10;10.00;;;;;;;9.79;75.71;98598.02;104714;1259;98258;-84
2024/04/11 00:54:36;;;;;;;15.20;10.10;;;;;;;9.80;75.66;98598.11;104754;1278;103278;-84
2024/04/11 00:57:07;;;;;;;14.80;10.00;;;;;;;9.81;75.91;98599.08;104776;1260;98347;-85
2024/04/11 00:59:36;;;;;;;17.20;9.80;;;;;;;9.80;75.99;98597.94;104708;1268;99964;-76
2024/04/11 01:02:04;;;;;;;13.50;9.10;;;;;;;9.81;76.00;98600.16;104810;1260;97830;-77
2024/04/11 01:04:33;;;;;;;16.60;9.30;;;;;;;9.82;76.09;98599.02;104731;1259;98007;-76
2024/04/11 01:07:06;;;;;;;14.20;9.20;;;;;;;9.81;76.21;98598.00;104804;1265;102684;-77
2024/04/11 01:09:35;;;;;;;12.80;9.00;;;;;;;9.81;76.30;98593.02;104742;1265;100371;-76
2024/04/11 01:12:03;;;;;;;13.70;8.70;;;;;;;9.82;76.44;98592.88;104710;1268;99047;-77
2024/04/11 01:14:31;;;;;;;17.30;9.50;;;;;;;9.81;76.39;98589.88;104758;1278;98223;-77
2024/04/11 01:16:57;;;;;;;9.60;8.50;;;;;;;9.80;76.50;98589.44;104797;1255;98416;-77
2024/04/11 01:19:24;;;;;;;11.40;8.70;;;;;;;9.81;76.60;98592.44;104794;1260;97972;-76
2024/04/11 01:21:51;;;;;;;12.30;8.90;;;;;;;9.79;76.51;98589.09;104746;1268;97990;-77
2024/04/11 01:24:17;;;;;;;15.90;8.80;;;;;;;9.79;76.49;98593.33;104798;1271;97914;-77
2024/04/11 01:26:43;;;;;;;11.00;8.10;;;;;;;9.80;76.58;98597.27;104768;1265;98155;-76
2024/04/11 01:29:10;;;;;;;11.90;8.10;;;;;;;9.80;76.58;98599.23;104601;1259;177449;-76
2024/04/11 01:31:38;;;;;;;12.40;8.40;;;;;;;9.80;76.67;98598.52;104740;1257;99335;-76
2024/04/11 01:34:05;;;;;;;14.30;8.50;;;;;;;9.79;76.77;98598.05;104802;1268;99170;-76
2024/04/11 01:36:31;;;;;;;11.30;8.80;;;;;;;9.74;76.80;98598.19;104738;1269;97917;-76
2024/04/11 01:38:57;;;;;;;10.70;8.60;;;;;;;9.74;76.91;98598.69;104840;1255;98006;-85
2024/04/11 01:41:24;;;;;;;13.20;8.90;;;;;;;9.72;77.03;98596.94;104765;1260;101452;-84
2024/04/11 01:43:51;;;;;;;12.50;8.80;;;;;;;9.71;77.06;98596.95;104714;1260;98463;-85
2024/04/11 01:46:18;;;;;;;13.10;8.80;;;;;;;9.69;77.07;98598.27;104757;1268;97981;-85
2024/04/11 01:48:46;;;;;;;10.30;8.10;;;;;;;9.68;77.03;98598.61;104746;1269;99126;-85
2024/04/11 01:51:14;;;;;;;14.00;9.10;;;;;;;9.68;77.17;98597.80;104727;1270;97966;-86
2024/04/11 01:53:44;;;;;;;16.10;8.80;;;;;;;9.69;77.21;98596.69;104741;1259;98079;-86
2024/04/11 01:56:11;;;;;;;14.60;9.50;;;;;;;9.68;77.29;98596.62;104774;1259;100313;-85
2024/04/11 01:58:41;;;;;;;12.10;9.00;;;;;;;9.66;77.26;98593.69;104703;1271;97925;-76
2024/04/11 02:01:09;;;;;;;13.00;9.50;;;;;;;9.66;77.32;98595.67;104809;1259;98432;-77
2024/04/11 02:03:38;;;;;;;16.40;9.60;;;;;;;9.67;77.41;98590.96;104712;1261;102442;-76
2024/04/11 02:06:07;;;;;;;16.00;9.40;;;;;;;9.67;77.31;98582.84;104802;1265;101260;-76
2024/04/11 02:08:37;;;;;;;13.40;9.40;;;;;;;9.66;77.30;98579.34;104618;1270;99171;-76
2024/04/11 02:11:06;;;;;;;18.20;10.20;;;;;;;9.68;77.36;98578.66;104750;1258;97907;-77
2024/04/11 02:13:32;;;;;;;13.30;9.10;;;;;;;9.68;77.37;98580.20;104787;1259;99762;-77
2024/04/11 02:15:59;;;;;;;12.10;9.80;;;;;;;9.68;77.50;98582.33;104757;1270;98343;-76
2024/04/11 02:18:27;;;;;;;17.10;10.70;;;;;;;9.67;77.55;98586.15;104628;1262;99242;-76
2024/04/11 02:20:54;;;;;;;14.10;10.50;;;;;;;9.65;77.49;98585.08;104802;1260;97996;-76
2024/04/11 02:23:20;;;;;;;17.30;11.20;;;;;;;9.66;77.66;98587.44;104727;1268;97986;-76
2024/04/11 02:25:47;;;;;;;13.40;9.70;;;;;;;9.65;77.61;98582.73;104874;1260;98044;-76
2024/04/11 02:28:14;;;;;;;18.80;10.90;;;;;;;9.64;77.53;98583.59;104777;1264;101384;-76
2024/04/11 02:30:40;;;;;;;16.20;10.50;;;;;;;9.62;77.57;98576.48;104734;1268;97944;-76
2024/04/11 02:33:06;;;;;;;15.00;10.40;;;;;;;9.60;77.60;98577.09;104701;1270;99099;-76
2024/04/11 02:35:36;;;;;;;14.10;10.40;;;;;;;9.59;77.72;98574.03;104760;1269;97909;-76
2024/04/11 02:38:02;;;;;;;17.70;10.40;;;;;;;9.58;77.88;98566.66;104691;1259;100190;-76
2024/04/11 02:40:29;;;;;;;15.30;9.70;;;;;;;9.56;77.81;98564.58;104759;1278;97890;-76
2024/04/11 02:42:56;;;;;;;15.30;10.10;;;;;;;9.53;77.68;98567.42;104672;1269;99243;-77
2024/04/11 02:45:22;;;;;;;12.90;9.90;;;;;;;9.49;77.65;98570.04;104753;1267;97987;-76
2024/04/11 02:47:48;;;;;;;13.20;9.90;;;;;;;9.45;77.72;98569.65;104829;1260;97979;-77
2024/04/11 02:50:16;;;;;;;13.70;9.70;;;;;;;9.40;77.87;98567.83;104752;1275;97914;-77
2024/04/11 02:52:43;;;;;;;13.90;9.10;;;;;;;9.39;77.96;98568.52;104782;1268;97904;-77
2024/04/11 02:55:10;;;;;;;13.00;9.20;;;;;;;9.38;77.96;98569.16;104786;1265;97929;-76
2024/04/11 02:57:38;;;;;;;16.70;9.10;;;;;;;9.37;78.00;98571.65;104934;1263;97911;-76
2024/04/11 03:00:05;;;;;;;13.20;9.30;;;;;;;9.36;78.04;98575.73;104831;1259;97910;-77
2024/04/11 03:02:34;;;;;;;15.80;10.00;;;;;;;9.33;77.97;98579.77;104776;1260;99269;-85
2024/04/11 03:05:03;;;;;;;13.20;9.00;;;;;;;9.31;78.09;98578.06;104805;1255;97945;-85
2024/04/11 03:07:30;;;;;;;18.30;9.50;;;;;;;9.27;78.10;98575.47;104739;1269;98396;-84
2024/04/11 03:09:56;;;;;;;13.10;9.70;;;;;;;9.25;78.12;98579.79;104733;1268;97965;-85
2024/04/11 03:12:23;;;;;;;16.50;9.50;;;;;;;9.22;78.09;98578.38;104634;1271;97923;-76
2024/04/11 03:14:50;;;;;;;12.50;8.80;;;;;;;9.21;78.21;98578.48;104860;1268;97840;-85
2024/04/11 03:17:17;;;;;;;13.50;9.00;;;;;;;9.20;78.30;98576.42;104829;1260;99148;-76
2024/04/11 03:19:45;;;;;;;11.50;9.00;;;;;;;9.18;78.34;98575.84;104699;1258;102586;-77
2024/04/11 03:22:11;;;;;;;14.60;9.30;;;;;;;9.16;78.29;98580.00;104697;1255;98500;-76
2024/04/11 03:24:38;;;;;;;16.10;9.70;;;;;;;9.15;78.35;98582.12;104738;1259;99233;-76
2024/04/11 03:27:05;;;;;;;15.70;9.60;;;;;;;9.14;78.41;98579.45;104742;1265;98832;-76
2024/04/11 03:29:31;;;;;;;13.80;10.20;;;;;;;9.14;78.44;98576.50;104814;1259;98825;-76
2024/04/11 03:31:57;;;;;;;16.00;9.80;;;;;;;9.13;78.59;98577.84;104786;1261;100106;-77
2024/04/11 03:34:26;;;;;;;13.90;9.80;;;;;;;9.12;78.63;98577.58;104742;1254;99464;-76
2024/04/11 03:36:54;;;;;;;17.70;10.40;;;;;;;9.11;78.64;98577.85;104768;1262;97901;-76
2024/04/11 03:39:21;;;;;;;15.10;10.40;;;;;;;9.10;78.69;98573.67;104751;1257;97956;-77
2024/04/11 03:41:48;;;;;;;16.70;10.00;;;;;;;9.10;78.67;98574.08;104679;1261;98554;-76
2024/04/11 03:44:16;;;;;;;16.10;10.00;;;;;;;9.03;78.58;98572.14;104810;1254;98062;-76
2024/04/11 03:46:42;;;;;;;13.00;10.10;;;;;;;9.03;78.64;98576.09;104803;1268;108574;-76
2024/04/11 03:49:08;;;;;;;21.70;10.10;;;;;;;9.02;78.80;98572.70;104685;1269;97918;-77
2024/04/11 03:51:38;;;;;;;16.00;9.40;;;;;;;9.00;78.86;98570.81;104791;1271;97914;-76
2024/04/11 03:54:06;;;;;;;19.40;10.40;;;;;;;9.01;78.88;98573.38;104798;1277;101328;-76
2024/04/11 03:56:33;;;;;;;16.70;10.30;;;;;;;9.04;79.07;98570.55;104759;1267;98729;-76
2024/04/11 03:58:59;;;;;;;17.10;10.60;;;;;;;9.06;79.06;98573.23;104716;1271;97911;-76
2024/04/11 04:01:28;;;;;;;15.70;10.20;;;;;;;9.07;79.09;98578.48;104798;1267;97980;-76
2024/04/11 04:04:03;;;;;;;13.90;9.70;;;;;;;9.07;79.22;98576.67;104784;1258;97931;-76
2024/04/11 04:06:32;;;;;;;12.80;10.10;;;;;;;9.07;79.23;98576.67;104801;1267;101407;-76
2024/04/11 04:08:58;;;;;;;16.10;9.70;;;;;;;9.09;79.17;98577.63;104767;1259;99008;-77
2024/04/11 04:11:25;;;;;;;14.90;9.90;;;;;;;9.10;79.19;98577.10;104730;1268;97913;-77
2024/04/11 04:13:52;;;;;;;16.10;9.80;;;;;;;9.11;79.24;98579.33;104781;1278;97935;-77
2024/04/11 04:16:19;;;;;;;12.60;9.00;;;;;;;9.12;79.34;98580.77;104713;1263;98040;-76
2024/04/11 04:18:50;;;;;;;12.60;8.90;;;;;;;9.14;79.33;98581.34;104770;1270;97936;-77
2024/04/11 04:21:20;;;;;;;13.70;9.70;;;;;;;9.14;79.31;98584.92;104749;1267;97948;-77
2024/04/11 04:23:48;;;;;;;14.30;9.50;;;;;;;9.13;79.44;98587.67;104792;1269;98511;-77
2024/04/11 04:26:19;;;;;;;13.00;8.60;;;;;;;9.12;79.40;98584.98;104769;1268;103605;-77
2024/04/11 04:28:46;;;;;;;13.60;9.80;;;;;;;9.11;79.55;98581.68;104821;1270;100656;-76
2024/04/11 04:31:22;;;;;;;14.10;9.70;;;;;;;9.09;79.49;98582.39;104901;1257;98441;-76
2024/04/11 04:33:53;;;;;;;12.80;9.80;;;;;;;9.08;79.37;98584.69;104700;1260;99244;-76
2024/04/11 04:36:24;;;;;;;12.50;9.10;;;;;;;9.07;79.42;98589.64;104905;1262;98362;-76
2024/04/11 04:38:51;;;;;;;12.40;9.50;;;;;;;9.05;79.36;98589.90;104815;1268;102683;-76
2024/04/11 04:41:18;;;;;;;13.20;9.10;;;;;;;9.02;79.31;98595.50;104826;1269;99261;-76
2024/04/11 04:43:52;;;;;;;14.60;10.10;;;;;;;8.98;79.35;98590.27;104758;1261;99803;-76
2024/04/11 04:46:20;;;;;;;15.20;9.60;;;;;;;8.94;79.22;98596.61;104810;1254;97995;-76
2024/04/11 04:48:47;;;;;;;12.90;9.30;;;;;;;8.91;79.28;98599.55;104706;1260;98348;-86
2024/04/11 04:51:16;;;;;;;13.80;9.20;;;;;;;8.90;79.42;98599.80;104857;1254;103804;-85
2024/04/11 04:53:42;;;;;;;17.00;10.10;;;;;;;8.89;79.55;98601.65;104790;1254;100325;-84
2024/04/11 04:56:09;;;;;;;14.50;9.70;;;;;;;8.90;79.49;98604.24;104850;1270;97979;-84
2024/04/11 04:58:39;;;;;;;12.50;9.80;;;;;;;8.91;79.61;98605.79;104784;1261;98004;-84
2024/04/11 05:01:08;;;;;;;13.80;10.10;;;;;;;8.94;79.78;98605.80;104804;1258;98379;-76
2024/04/11 05:03:35;;;;;;;15.70;10.30;;;;;;;8.96;79.88;98607.88;104759;1261;103349;-76
2024/04/11 05:06:02;;;;;;;15.90;11.80;;;;;;;8.99;79.97;98611.48;104826;1254;97831;-76
2024/04/11 05:08:32;;;;;;;19.00;12.30;;;;;;;9.03;79.98;98611.05;104703;1270;99228;-76
2024/04/11 05:10:59;;;;;;;19.90;12.00;;;;;;;9.07;80.04;98613.30;104838;1268;99108;-76
2024/04/11 05:13:29;;;;;;;22.00;12.20;;;;;;;9.11;79.98;98614.30;104789;1259;97941;-77
2024/04/11 05:15:57;;;;;;;16.70;11.90;;;;;;;9.15;79.89;98620.11;104837;1267;102572;-77
2024/04/11 05:18:23;;;;;;;15.90;11.30;;;;;;;9.19;79.86;98621.05;104797;1260;97945;-77
2024/04/11 05:20:51;;;;;;;16.40;10.40;;;;;;;9.23;79.94;98623.67;104789;1260;97888;-76
2024/04/11 05:23:19;;;;;;;17.60;11.30;;;;;;;9.25;79.91;98617.21;104736;1260;97901;-76
2024/04/11 05:25:46;;;;;;;17.50;10.60;;;;;;;9.30;79.83;98619.46;104884;1270;98018;-77
2024/04/11 05:28:14;;;;;;;17.30;10.90;;;;;;;9.34;79.78;98620.30;104851;1271;97855;-77
2024/04/11 05:30:43;;;;;;;17.10;10.90;;;;;;;9.37;79.73;98617.92;104823;1268;101470;-76
2024/04/11 05:33:10;;;;;;;16.50;10.10;;;;;;;9.41;79.65;98616.56;104713;1271;98951;-76
2024/04/11 05:35:36;;;;;;;16.60;10.60;;;;;;;9.45;79.66;98620.95;104786;1266;97987;-76
2024/04/11 05:38:02;;;;;;;17.80;11.10;;;;;;;9.51;79.77;98617.34;104775;1268;98390;-76
2024/04/11 05:40:32;;;;;;;17.80;11.90;;;;;;;9.56;79.76;98621.22;104830;1268;97904;-76
2024/04/11 05:42:59;;;;;;;20.20;12.50;;;;;;;9.59;79.76;98618.14;104693;1261;100197;-77
2024/04/11 05:45:33;;;;;;;25.60;13.00;;;;;;;9.63;79.64;98618.52;104668;1261;98055;-77
2024/04/11 05:48:03;;;;;;;21.90;13.30;;;;;;;9.67;79.56;98617.60;104669;1267;98432;-77
2024/04/11 05:50:30;;;;;;;20.60;13.10;;;;;;;9.74;79.57;98621.07;104765;1254;103673;-78
2024/04/11 05:52:58;;;;;;;18.60;12.40;;;;;;;9.79;79.47;98619.25;104743;1261;98817;-78
2024/04/11 05:55:24;;;;;;;18.40;11.70;;;;;;;9.83;79.29;98613.41;104795;1261;97910;-81
2024/04/11 05:57:53;;;;;;;20.60;13.20;;;;;;;9.88;79.11;98616.21;104754;1261;98028;-78
2024/04/11 06:00:22;;;;;;;24.30;13.70;;;;;;;9.92;78.97;98624.06;104843;1260;98431;-78
2024/04/11 06:02:48;;;;;;;18.00;12.10;;;;;;;9.97;79.01;98629.73;104833;1260;102546;-78
2024/04/11 06:05:15;;;;;;;17.90;12.80;;;;;;;10.05;79.05;98632.52;104849;1254;97964;-78
2024/04/11 06:07:41;;;;;;;18.70;12.50;;;;;;;10.10;78.96;98633.58;104706;1268;97943;-78
2024/04/11 06:10:11;;;;;;;22.80;13.20;;;;;;;10.16;78.89;98633.77;104849;1254;97920;-78
2024/04/11 06:12:38;;;;;;;21.80;13.20;;;;;;;10.23;78.68;98633.76;104825;1259;102668;-79
2024/04/11 06:15:07;;;;;;;25.70;14.00;;;;;;;10.30;78.72;98630.86;104993;1254;97975;-77
2024/04/11 06:17:34;;;;;;;23.10;14.70;;;;;;;10.39;78.58;98628.94;104766;1260;97930;-78
2024/04/11 06:20:01;;;;;;;27.00;19.20;;;;;;;10.45;78.40;98629.27;104801;1261;97984;-77
2024/04/11 06:22:28;;;;;;;26.40;16.20;;;;;;;10.48;78.04;98628.85;104843;1261;98329;-77
2024/04/11 06:24:55;;;;;;;22.10;14.90;;;;;;;10.53;77.95;98630.73;104800;1260;97991;-86
2024/04/11 06:27:21;;;;;;;19.80;14.70;;;;;;;10.59;77.88;98626.80;104746;1259;97930;-87
2024/04/11 06:29:48;;;;;;;21.50;15.10;;;;;;;10.65;77.94;98633.83;104817;1277;98029;-87
2024/04/11 06:32:17;;;;;;;23.20;16.30;;;;;;;10.69;77.83;98637.14;104864;1269;98356;-82
2024/04/11 06:34:44;;;;;;;23.90;16.10;;;;;;;10.75;77.62;98640.19;104795;1268;103395;-82
2024/04/11 06:37:11;;;;;;;26.00;17.10;;;;;;;10.76;77.36;98638.34;104824;1255;97984;-82
2024/04/11 06:39:41;;;;;;;18.30;14.70;;;;;;;10.80;77.18;98643.17;104848;1260;98471;-82
2024/04/11 06:42:13;;;;;;;20.10;15.10;;;;;;;10.85;77.10;98649.24;104750;1260;97984;-82
2024/04/11 06:44:40;;;;;;;20.50;15.00;;;;;;;10.93;76.93;98647.75;104763;1260;97935;-83
2024/04/11 06:47:09;;;;;;;22.40;14.50;;;;;;;11.02;76.77;98650.36;104788;1267;102383;-82
2024/04/11 06:49:39;;;;;;;19.90;14.20;;;;;;;11.11;76.63;98655.44;104760;1275;101316;-82
2024/04/11 06:52:12;;;;;;;21.20;13.90;;;;;;;11.18;76.36;98656.39;104844;1261;99963;-83
2024/04/11 06:54:40;;;;;;;18.80;11.90;;;;;;;11.24;76.10;98653.56;104774;1261;97893;-83
2024/04/11 06:57:11;;;;;;;15.20;11.40;;;;;;;11.31;75.96;98653.00;104780;1261;98857;-83
2024/04/11 06:59:37;;;;;;;18.50;11.90;;;;;;;11.39;75.45;98651.36;104746;1268;103547;-83
2024/04/11 07:02:07;;;;;;;18.30;11.60;;;;;;;11.45;75.25;98653.61;104832;1259;98926;-83
2024/04/11 07:04:33;;;;;;;16.10;11.20;;;;;;;11.48;74.78;98649.66;104776;1259;98995;-83
2024/04/11 07:07:08;;;;;;;17.30;11.20;;;;;;;11.52;74.69;98652.25;104809;1270;97977;-82
2024/04/11 07:09:37;;;;;;;17.20;10.10;;;;;;;11.56;74.74;98651.91;104757;1257;98419;-83
2024/04/11 07:12:10;;;;;;;16.90;11.20;;;;;;;11.63;74.68;98648.21;104823;1270;103676;-83
2024/04/11 07:14:40;;;;;;;15.40;11.50;;;;;;;11.66;74.07;98643.91;104730;1277;101388;-83
2024/04/11 07:17:11;;;;;;;18.90;12.30;;;;;;;11.66;73.81;98641.30;104792;1260;99132;-82
2024/04/11 07:19:42;;;;;;;16.10;10.30;;;;;;;11.75;73.82;98640.60;104729;1260;97933;-81
2024/04/11 07:22:09;;;;;;;17.90;10.80;;;;;;;11.81;73.52;98641.79;104909;1254;97920;-83
2024/04/11 07:24:37;;;;;;;18.30;10.50;;;;;;;11.86;73.63;98641.74;104803;1268;98003;-83
2024/04/11 07:27:11;;;;;;;17.90;12.00;;;;;;;11.93;73.77;98642.91;104782;1254;98115;-83
2024/04/11 07:29:39;;;;;;;16.00;11.90;;;;;;;11.99;73.46;98640.48;104840;1270;98962;-83
2024/04/11 07:32:05;;;;;;;18.60;11.10;;;;;;;12.08;73.04;98637.80;104866;1261;98036;-83
2024/04/11 07:34:33;;;;;;;15.10;11.80;;;;;;;12.16;72.89;98642.17;104799;1259;97986;-82
2024/04/11 07:37:00;;;;;;;17.80;10.80;;;;;;;12.35;73.10;98643.88;104702;1261;97925;-83
2024/04/11 07:39:26;;;;;;;15.00;11.00;;;;;;;12.62;72.81;98644.36;104823;1259;97983;-82
2024/04/11 07:42:00;;;;;;;15.70;11.30;;;;;;;12.96;72.25;98646.57;104778;1260;99333;-84
2024/04/11 07:44:26;;;;;;;18.90;11.30;;;;;;;13.26;71.55;98649.66;104765;1254;97994;-83
2024/04/11 07:46:54;;;;;;;15.60;11.20;;;;;;;13.39;71.21;98656.02;104804;1269;98420;-76
2024/04/11 07:49:23;;;;;;;13.90;10.60;;;;;;;13.46;70.76;98652.59;104789;1254;97895;-76
2024/04/11 07:51:51;;;;;;;15.60;10.80;;;;;;;13.47;70.04;98658.60;104774;1260;100194;-76
2024/04/11 07:54:17;;;;;;;17.00;11.20;;;;;;;13.44;69.81;98659.16;104819;1259;99234;-76
2024/04/11 07:56:44;;;;;;;16.00;11.30;;;;;;;13.42;69.71;98665.03;104780;1261;97859;-77
2024/04/11 07:59:11;;;;;;;17.20;11.00;;;;;;;13.40;69.49;98668.07;104784;1261;97920;-76
2024/04/11 08:01:41;;;;;;;20.20;11.30;;;;;;;13.35;68.65;98674.13;104788;1262;98586;-84
2024/04/11 08:04:10;;;;;;;17.30;11.10;;;;;;;13.24;68.48;98675.43;104728;1268;97926;-85
2024/04/11 08:06:37;;;;;;;13.30;11.30;;;;;;;13.16;68.23;98671.27;104681;1261;98958;-84
2024/04/11 08:09:06;;;;;;;16.10;11.90;;;;;;;13.10;68.58;98671.48;104733;1260;98345;-85
2024/04/11 08:11:34;;;;;;;14.70;10.50;;;;;;;13.07;68.21;98677.00;104763;1261;98508;-85
2024/04/11 08:14:03;;;;;;;15.70;10.90;;;;;;;13.02;68.13;98675.27;104859;1260;103326;-85
2024/04/11 08:16:32;;;;;;;19.90;11.70;;;;;;;12.96;68.05;98678.95;104892;1263;100433;-78
2024/04/11 08:19:02;;;;;;;16.60;11.20;;;;;;;12.90;67.97;98681.34;104829;1259;99875;-78
2024/04/11 08:21:32;;;;;;;15.90;11.30;;;;;;;12.85;68.18;98682.70;104841;1261;99271;-78
2024/04/11 08:24:00;;;;;;;19.50;11.20;;;;;;;12.81;68.33;98685.88;104775;1259;98506;-79
2024/04/11 08:26:27;;;;;;;16.50;11.50;;;;;;;12.79;68.31;98690.04;104785;1259;103496;-78
2024/04/11 08:28:55;;;;;;;16.20;10.70;;;;;;;12.76;68.57;98695.42;104839;1261;97914;-78
2024/04/11 08:31:27;;;;;;;19.60;12.50;;;;;;;12.69;68.48;98695.60;104860;1270;99601;-78
2024/04/11 08:33:57;;;;;;;22.00;11.30;;;;;;;12.59;68.57;98696.13;104741;1261;97899;-77
2024/04/11 08:36:23;;;;;;;18.60;12.00;;;;;;;12.51;68.71;98698.19;104825;1258;97882;-78
2024/04/11 08:38:50;;;;;;;16.40;11.60;;;;;;;12.49;69.02;98700.23;104731;1259;99312;-78
2024/04/11 08:41:16;;;;;;;18.90;11.80;;;;;;;12.49;69.03;98702.40;104801;1260;97921;-85
2024/04/11 08:43:45;;;;;;;19.40;12.80;;;;;;;12.49;68.90;98700.81;104820;1277;99201;-85
2024/04/11 08:46:11;;;;;;;18.10;13.60;;;;;;;12.46;68.97;98701.11;104872;1258;98375;-86
2024/04/11 08:48:39;;;;;;;19.00;14.10;;;;;;;12.45;69.01;98702.39;104748;1254;98006;-86
2024/04/11 08:51:19;;;;;;;21.40;14.80;;;;;;;12.45;68.62;98700.02;104795;1254;98421;-85
2024/04/11 08:53:47;;;;;;;18.40;14.30;;;;;;;12.45;68.71;98699.27;104752;1260;99125;-86
2024/04/11 08:56:16;;;;;;;17.60;13.40;;;;;;;12.47;68.51;98701.70;104722;1261;98036;-86
2024/04/11 08:58:44;;;;;;;19.90;14.40;;;;;;;12.50;68.87;98703.34;104861;1261;99110;-78
2024/04/11 09:01:11;;;;;;;20.30;14.80;;;;;;;12.54;68.79;98705.95;104818;1270;102599;-79
2024/04/11 09:03:40;;;;;;;22.20;15.80;;;;;;;12.58;68.94;98704.16;104830;1270;97997;-77
2024/04/11 09:06:12;;;;;;;23.60;17.40;;;;;;;12.62;68.88;98705.05;104842;1270;99906;-78
2024/04/11 09:08:39;;;;;;;20.50;15.90;;;;;;;12.69;68.90;98704.67;104747;1270;99306;-77
2024/04/11 09:11:07;;;;;;;17.40;14.20;;;;;;;12.72;68.40;98709.26;104794;1260;98463;-76
2024/04/11 09:13:33;;;;;;;21.70;15.10;;;;;;;12.76;68.35;98705.93;104779;1270;97910;-77
2024/04/11 09:16:01;;;;;;;20.60;15.00;;;;;;;12.80;68.44;98704.97;104793;1259;99119;-75
2024/04/11 09:18:28;;;;;;;19.00;15.00;;;;;;;12.88;68.28;98699.80;104813;1269;97914;-85
2024/04/11 09:21:05;;;;;;;16.60;14.80;;;;;;;12.94;68.02;98697.34;104794;1259;99142;-82
2024/04/11 09:23:51;;;;;;;19.10;14.40;;;;;;;13.09;68.32;98694.80;104810;1270;97820;-82
2024/04/11 09:26:18;;;;;;;24.90;13.90;;;;;;;13.34;68.31;98699.11;104755;1260;103926;-83
2024/04/11 09:28:48;;;;;;;19.70;14.10;;;;;;;13.67;67.98;98697.74;104756;1259;97933;-82
2024/04/11 09:31:18;;;;;;;18.30;13.30;;;;;;;13.89;67.71;98697.91;105229;1254;98967;-90
2024/04/11 09:33:53;;;;;;;18.80;13.50;;;;;;;14.05;67.41;98698.73;106054;1254;98741;-91
2024/04/11 09:36:20;;;;;;;20.60;13.00;;;;;;;14.17;67.17;98701.00;105469;1270;98528;-83
2024/04/11 09:38:53;;;;;;;18.60;12.30;;;;;;;14.23;66.71;98697.73;104858;1270;97922;-82
2024/04/11 09:41:24;;;;;;;15.80;11.60;;;;;;;14.28;66.76;98689.46;104801;1254;100323;-82
2024/04/11 09:43:55;;;;;;;20.40;12.40;;;;;;;14.32;66.19;98691.29;104801;1259;100009;-82
2024/04/11 09:46:23;;;;;;;18.80;12.50;;;;;;;14.30;65.86;98685.71;104753;1258;97922;-83
2024/04/11 09:48:51;;;;;;;16.20;12.10;;;;;;;14.30;65.88;98688.27;104771;1258;98891;-82
2024/04/11 09:51:20;;;;;;;17.40;12.80;;;;;;;14.31;65.84;98691.91;104798;1261;103285;-81
2024/04/11 09:53:47;;;;;;;23.80;12.60;;;;;;;14.30;65.47;98693.06;104835;1268;101440;-81
2024/04/11 09:56:16;;;;;;;18.00;11.80;;;;;;;14.29;65.61;98693.56;104827;1270;97916;-82
2024/04/11 09:58:46;;;;;;;23.60;12.20;;;;;;;14.32;65.38;98694.38;104805;1254;99237;-82
2024/04/11 10:01:29;;;;;;;17.90;11.80;;;;;;;14.37;65.23;98694.81;104771;1258;98466;-80
2024/04/11 10:04:01;;;;;;;17.00;12.00;;;;;;;14.43;65.11;98697.48;104806;1260;103715;-82
2024/04/11 10:06:29;;;;;;;16.70;12.40;;;;;;;14.48;64.83;98701.42;104883;1258;100375;-82
2024/04/11 10:09:18;;;;;;;19.90;12.70;;;;;;;14.53;64.26;98698.05;104818;1260;99177;-82
2024/04/11 10:11:51;;;;;;;18.40;12.20;;;;;;;14.51;64.09;98696.24;104844;1259;97904;-82
2024/04/11 10:14:20;;;;;;;16.50;11.90;;;;;;;14.53;64.25;98690.28;104870;1254;98383;-78
2024/04/11 10:16:55;;;;;;;20.90;11.90;;;;;;;14.66;64.37;98694.08;104840;1259;103564;-78
2024/04/11 10:19:31;;;;;;;14.70;11.00;;;;;;;14.84;64.11;98697.91;104834;1260;101365;-78
2024/04/11 10:22:06;;;;;;;17.60;12.00;;;;;;;15.01;63.71;98699.42;104826;1259;99977;-79
2024/04/11 10:24:35;;;;;;;16.50;11.20;;;;;;;15.17;63.12;98697.05;104784;1275;97991;-78
2024/04/11 10:27:14;;;;;;;16.40;11.60;;;;;;;15.32;63.07;98696.16;104842;1261;98349;-79
2024/04/11 10:29:43;;;;;;;17.20;12.00;;;;;;;15.47;62.74;98698.61;104809;1258;102633;-80
2024/04/11 10:32:35;;;;;;;12.30;10.50;;;;;;;15.61;62.41;98699.55;104828;1254;100342;-76
2024/04/11 10:35:05;;;;;;;16.00;10.90;;;;;;;15.71;62.08;98699.95;104885;1270;99987;-79
2024/04/11 10:37:33;;;;;;;15.70;10.20;;;;;;;15.71;62.10;98698.85;104892;1259;97959;-78
2024/04/11 10:40:00;;;;;;;18.70;10.80;;;;;;;15.71;61.62;98696.34;104864;1254;98456;-79
2024/04/11 10:42:36;;;;;;;16.80;11.10;;;;;;;15.71;61.09;98690.73;104796;1258;102524;-80
2024/04/11 10:45:10;;;;;;;17.10;10.00;;;;;;;15.74;60.95;98685.62;104777;1260;101336;-79
2024/04/11 10:47:38;;;;;;;14.90;10.10;;;;;;;15.79;61.12;98682.98;104745;1261;99965;-79
2024/04/11 10:50:09;;;;;;;18.60;10.10;;;;;;;15.88;60.82;98678.55;104820;1254;99229;-79
2024/04/11 10:52:37;;;;;;;15.20;9.60;;;;;;;16.05;61.08;98681.25;104841;1258;98714;-79
2024/04/11 10:55:12;;;;;;;13.30;9.40;;;;;;;16.26;60.78;98682.45;104876;1260;102302;-80
2024/04/11 10:57:45;;;;;;;13.70;9.30;;;;;;;16.44;60.24;98684.08;104826;1259;100355;-79
2024/04/11 11:00:11;;;;;;;;;;;;;;;16.63;60.05;98680.90;104819;1254;99207;-80
2024/04/11 11:02:42;;;;;;;15.80;9.80;;;;;;;16.87;59.66;98678.65;104817;1261;98004;-83
2024/04/11 11:05:08;;;;;;;13.30;9.80;;;;;;;17.09;58.93;98679.84;104798;1270;98525;-83
2024/04/11 11:07:35;;;;;;;16.00;10.20;;;;;;;17.21;58.74;98679.27;104820;1258;97914;-83
2024/04/11 11:10:11;;;;;;;17.20;8.90;;;;;;;17.30;58.84;98680.61;104842;1255;99259;-83
2024/04/11 11:12:38;;;;;;;10.70;9.00;;;;;;;17.41;58.52;98674.92;104920;1258;99949;-83
2024/04/11 11:15:06;;;;;;;11.10;8.40;;;;;;;17.62;58.17;98670.59;104860;1259;97917;-84
2024/04/11 11:17:39;;;;;;;19.30;9.00;;;;;;;17.79;57.75;98671.60;104816;1260;97921;-83
2024/04/11 11:20:09;;;;;;;12.20;8.80;;;;;;;17.78;56.66;98672.04;104872;1260;103519;-82